createdAt,value
2022-09-27T00:01:13.428Z,10.01
2022-09-27T00:03:40.591Z,9.94
2022-09-27T00:06:24.333Z,9.95
2022-09-27T00:08:51.157Z,9.73
2022-09-27T00:11:27.011Z,9.97
2022-09-27T00:13:55.760Z,9.87
2022-09-27T00:16:23.743Z,9.68
2022-09-27T00:18:50.771Z,9.98
2022-09-27T00:21:17.605Z,9.84
2022-09-27T00:23:44.351Z,9.94
2022-09-27T00:26:13.386Z,9.85
2022-09-27T00:28:40.579Z,9.80
2022-09-27T00:31:29.823Z,9.77
2022-09-27T00:33:58.902Z,9.63
2022-09-27T00:36:27.182Z,9.68
2022-09-27T00:38:55.130Z,9.51
2022-09-27T00:41:27.196Z,9.23
2022-09-27T00:43:56.834Z,9.49
2022-09-27T00:46:36.482Z,8.91
2022-09-27T00:49:16.976Z,9.54
2022-09-27T00:51:46.588Z,9.50
2022-09-27T00:54:17.676Z,9.53
2022-09-27T00:56:46.502Z,9.37
2022-09-27T00:59:18.529Z,9.14
2022-09-27T01:01:45.348Z,9.33
2022-09-27T01:04:14.996Z,9.28
2022-09-27T01:06:41.633Z,9.05
2022-09-27T01:09:10.589Z,9.36
2022-09-27T01:11:43.607Z,9.28
2022-09-27T01:14:38.888Z,9.28
2022-09-27T01:17:11.860Z,9.31
2022-09-27T01:20:11.136Z,9.15
2022-09-27T01:22:56.654Z,9.24
2022-09-27T01:25:35.659Z,9.23
2022-09-27T01:28:27.925Z,9.24
2022-09-27T01:31:36.091Z,9.22
2022-09-27T01:34:05.924Z,9.14
2022-09-27T01:36:54.601Z,9.15
2022-09-27T01:39:27.253Z,9.07
2022-09-27T01:42:24.895Z,8.58
2022-09-27T01:45:33.208Z,9.14
2022-09-27T01:48:21.266Z,9.03
2022-09-27T01:51:00.020Z,9.06
2022-09-27T01:53:35.903Z,9.16
2022-09-27T01:56:31.000Z,9.10
2022-09-27T01:59:15.938Z,9.03
2022-09-27T02:01:52.500Z,9.03
2022-09-27T02:04:26.440Z,8.98
2022-09-27T02:07:29.949Z,8.87
2022-09-27T02:10:14.503Z,8.90
2022-09-27T02:13:06.976Z,8.86
2022-09-27T02:16:15.072Z,9.07
2022-09-27T02:18:47.951Z,9.11
2022-09-27T02:21:18.222Z,8.55
2022-09-27T02:23:53.784Z,9.01
2022-09-27T02:26:35.862Z,8.93
2022-09-27T02:29:08.302Z,9.00
2022-09-27T02:31:43.226Z,9.03
2022-09-27T02:34:24.004Z,9.03
2022-09-27T02:36:53.492Z,8.68
2022-09-27T02:39:20.900Z,8.82
2022-09-27T02:41:58.255Z,8.60
2022-09-27T02:44:26.474Z,8.77
2022-09-27T02:47:05.487Z,8.95
2022-09-27T02:49:55.157Z,8.93
2022-09-27T02:53:08.086Z,8.37
2022-09-27T02:56:10.784Z,8.89
2022-09-27T02:59:18.144Z,8.85
2022-09-27T03:02:27.603Z,8.63
2022-09-27T03:05:40.719Z,8.73
2022-09-27T03:08:08.059Z,8.66
2022-09-27T03:10:34.717Z,8.29
2022-09-27T03:13:02.115Z,8.22
2022-09-27T03:15:28.837Z,8.34
2022-09-27T03:18:01.817Z,8.37
2022-09-27T03:20:47.052Z,8.43
2022-09-27T03:23:18.947Z,8.26
2022-09-27T03:25:46.286Z,8.24
2022-09-27T03:28:13.957Z,8.10
2022-09-27T03:30:42.644Z,8.15
2022-09-27T03:33:10.598Z,8.12
2022-09-27T03:35:37.759Z,8.43
2022-09-27T03:38:07.535Z,8.18
2022-09-27T03:40:34.473Z,8.27
2022-09-27T03:43:01.695Z,8.26
2022-09-27T03:45:29.377Z,8.38
2022-09-27T03:47:57.436Z,8.12
2022-09-27T03:50:24.252Z,8.34
2022-09-27T03:52:50.962Z,8.41
2022-09-27T03:55:20.496Z,8.34
2022-09-27T03:57:47.351Z,8.44
2022-09-27T04:00:16.188Z,8.28
2022-09-27T04:02:43.110Z,7.74
2022-09-27T04:05:22.198Z,8.51
2022-09-27T04:07:49.749Z,8.62
2022-09-27T04:10:18.271Z,8.54
2022-09-27T04:12:45.024Z,8.05
2022-09-27T04:15:12.053Z,8.45
2022-09-27T04:17:51.581Z,8.52
2022-09-27T04:20:49.991Z,8.26
2022-09-27T04:23:18.064Z,8.33
2022-09-27T04:25:50.596Z,8.34
2022-09-27T04:28:37.474Z,8.33
2022-09-27T04:31:04.419Z,8.37
2022-09-27T04:33:49.594Z,8.52
2022-09-27T04:36:26.451Z,8.22
2022-09-27T04:39:02.744Z,8.51
2022-09-27T04:41:30.147Z,8.38
2022-09-27T04:43:59.361Z,8.56
2022-09-27T04:46:31.584Z,8.21
2022-09-27T04:48:59.793Z,8.55
2022-09-27T04:51:28.101Z,8.34
2022-09-27T04:53:57.072Z,8.37
2022-09-27T04:56:27.780Z,8.48
2022-09-27T04:58:54.567Z,8.49
2022-09-27T05:01:21.519Z,8.49
2022-09-27T05:04:06.704Z,8.24
2022-09-27T05:06:36.261Z,8.32
2022-09-27T05:09:15.605Z,8.52
2022-09-27T05:11:50.301Z,8.45
2022-09-27T05:14:36.045Z,8.29
2022-09-27T05:17:26.044Z,8.49
2022-09-27T05:19:58.402Z,8.67
2022-09-27T05:22:48.118Z,8.74
2022-09-27T05:25:15.024Z,8.65
2022-09-27T05:27:41.669Z,8.95
2022-09-27T05:30:10.122Z,8.66
2022-09-27T05:32:47.391Z,8.84
2022-09-27T05:35:45.607Z,8.78
2022-09-27T05:38:12.459Z,8.53
2022-09-27T05:40:44.360Z,8.73
2022-09-27T05:43:11.580Z,8.59
2022-09-27T05:45:38.405Z,8.83
2022-09-27T05:48:06.532Z,8.83
2022-09-27T05:50:38.626Z,8.89
2022-09-27T05:53:06.067Z,8.41
2022-09-27T05:55:33.071Z,8.75
2022-09-27T05:58:02.723Z,8.55
2022-09-27T06:00:41.106Z,8.20
2022-09-27T06:03:28.049Z,8.13
2022-09-27T06:06:14.513Z,8.22
2022-09-27T06:08:52.505Z,7.95
2022-09-27T06:11:20.045Z,7.80
2022-09-27T06:13:49.446Z,7.97
2022-09-27T06:16:16.447Z,7.97
2022-09-27T06:18:45.102Z,7.89
2022-09-27T06:21:13.208Z,7.68
2022-09-27T06:23:42.514Z,7.85
2022-09-27T06:26:15.700Z,7.62
2022-09-27T06:28:58.040Z,7.41
2022-09-27T06:31:24.722Z,7.56
2022-09-27T06:34:12.499Z,7.80
2022-09-27T06:36:39.239Z,7.77
2022-09-27T06:39:05.984Z,7.80
2022-09-27T06:41:40.297Z,7.88
2022-09-27T06:44:26.997Z,7.80
2022-09-27T06:47:12.523Z,7.61
2022-09-27T06:49:57.739Z,7.71
2022-09-27T06:52:25.713Z,7.88
2022-09-27T06:54:52.436Z,7.68
2022-09-27T06:57:40.457Z,7.53
2022-09-27T07:00:26.404Z,7.46
2022-09-27T07:03:13.575Z,7.76
2022-09-27T07:06:00.005Z,7.59
2022-09-27T07:08:41.061Z,7.68
2022-09-27T07:11:08.040Z,7.72
2022-09-27T07:13:40.213Z,7.98
2022-09-27T07:16:07.515Z,7.71
2022-09-27T07:18:34.240Z,7.90
2022-09-27T07:21:01.753Z,7.68
2022-09-27T07:23:29.321Z,7.52
2022-09-27T07:26:01.567Z,7.43
2022-09-27T07:28:28.496Z,7.51
2022-09-27T07:30:56.926Z,7.70
2022-09-27T07:33:24.358Z,7.67
2022-09-27T07:35:51.459Z,7.85
2022-09-27T07:38:18.122Z,7.92
2022-09-27T07:40:44.935Z,7.70
2022-09-27T07:43:12.309Z,7.82
2022-09-27T07:45:40.012Z,7.94
2022-09-27T07:48:21.306Z,7.60
2022-09-27T07:51:02.341Z,7.90
2022-09-27T07:54:04.226Z,7.72
2022-09-27T07:56:52.973Z,8.02
2022-09-27T07:59:21.447Z,7.83
2022-09-27T08:01:48.485Z,7.91
2022-09-27T08:04:15.277Z,7.96
2022-09-27T08:06:42.733Z,7.92
2022-09-27T08:09:12.440Z,7.90
2022-09-27T08:11:40.641Z,7.81
2022-09-27T08:14:10.686Z,7.83
2022-09-27T08:16:39.369Z,7.75
2022-09-27T08:19:25.627Z,7.81
2022-09-27T08:22:21.941Z,7.76
2022-09-27T08:25:02.501Z,7.74
2022-09-27T08:28:07.235Z,8.11
2022-09-27T08:30:43.385Z,7.96
2022-09-27T08:33:10.054Z,7.82
2022-09-27T08:35:36.714Z,7.91
2022-09-27T08:38:05.553Z,8.11
2022-09-27T08:40:59.501Z,8.17
2022-09-27T08:43:32.365Z,8.03
2022-09-27T08:46:05.200Z,7.85
2022-09-27T08:48:32.857Z,7.55
2022-09-27T08:51:03.284Z,7.28
2022-09-27T08:53:41.450Z,7.43
2022-09-27T08:56:10.924Z,7.40
2022-09-27T08:59:04.742Z,7.44
2022-09-27T09:01:35.178Z,7.25
2022-09-27T09:04:39.242Z,7.78
2022-09-27T09:07:18.748Z,8.06
2022-09-27T09:10:02.027Z,7.93
2022-09-27T09:12:58.135Z,8.04
2022-09-27T09:16:29.709Z,8.08
2022-09-27T09:19:09.217Z,8.08
2022-09-27T09:21:58.411Z,8.14
2022-09-27T09:24:59.217Z,8.33
2022-09-27T09:27:40.673Z,8.31
2022-09-27T09:30:23.582Z,8.35
2022-09-27T09:33:51.045Z,8.33
2022-09-27T09:36:35.569Z,8.28
2022-09-27T09:39:12.104Z,7.93
2022-09-27T09:42:12.653Z,8.29
2022-09-27T09:44:48.607Z,8.07
2022-09-27T09:47:36.025Z,8.12
2022-09-27T09:50:16.036Z,8.57
2022-09-27T09:52:49.434Z,8.73
2022-09-27T09:55:20.132Z,8.64
2022-09-27T09:58:03.562Z,8.85
2022-09-27T10:00:40.741Z,8.51
2022-09-27T10:03:07.496Z,8.39
2022-09-27T10:05:34.793Z,7.74
2022-09-27T10:08:12.915Z,8.68
2022-09-27T10:10:40.422Z,8.56
2022-09-27T10:13:38.967Z,8.21
2022-09-27T10:16:10.075Z,8.82
2022-09-27T10:18:39.731Z,8.53
2022-09-27T10:21:31.677Z,8.66
2022-09-27T10:24:10.460Z,8.17
2022-09-27T10:27:01.367Z,8.16
2022-09-27T10:29:37.349Z,8.44
2022-09-27T10:32:22.462Z,7.81
2022-09-27T10:34:51.245Z,8.38
2022-09-27T10:37:22.413Z,8.39
2022-09-27T10:40:25.103Z,8.47
2022-09-27T10:42:51.830Z,8.59
2022-09-27T10:45:33.849Z,8.74
2022-09-27T10:48:20.075Z,9.21
2022-09-27T10:51:01.504Z,9.14
2022-09-27T10:53:46.605Z,9.22
2022-09-27T10:56:34.609Z,9.32
2022-09-27T10:59:04.202Z,9.12
2022-09-27T11:01:45.522Z,9.55
2022-09-27T11:04:38.581Z,9.73
2022-09-27T11:07:18.595Z,9.61
2022-09-27T11:09:54.759Z,9.34
2022-09-27T11:12:25.170Z,9.45
2022-09-27T11:14:57.840Z,8.61
2022-09-27T11:17:53.143Z,8.81
2022-09-27T11:20:24.683Z,8.98
2022-09-27T11:23:47.522Z,8.80
2022-09-27T11:26:33.908Z,8.65
2022-09-27T11:29:40.265Z,8.67
2022-09-27T11:33:00.226Z,8.53
2022-09-27T11:35:47.278Z,8.89
2022-09-27T11:38:48.087Z,9.20
2022-09-27T11:41:14.506Z,8.83
2022-09-27T11:44:06.173Z,8.78
2022-09-27T11:46:41.830Z,8.56
2022-09-27T11:49:16.771Z,9.28
2022-09-27T11:52:04.176Z,9.35
2022-09-27T11:54:34.718Z,9.18
2022-09-27T11:57:16.336Z,8.90
2022-09-27T11:59:57.594Z,8.69
2022-09-27T12:02:52.369Z,8.02
2022-09-27T12:05:55.233Z,7.61
2022-09-27T12:08:34.013Z,7.54
2022-09-27T12:11:10.530Z,7.82
2022-09-27T12:13:43.977Z,8.27
2022-09-27T12:16:15.178Z,9.37
2022-09-27T12:18:45.839Z,10.05
2022-09-27T12:21:37.731Z,10.05
2022-09-27T12:24:04.622Z,10.36
2022-09-27T12:26:42.360Z,10.21
2022-09-27T12:29:23.084Z,10.79
2022-09-27T12:31:54.832Z,10.88
2022-09-27T12:34:24.727Z,10.17
2022-09-27T12:37:11.204Z,10.42
2022-09-27T12:39:50.153Z,9.83
2022-09-27T12:42:47.188Z,9.64
2022-09-27T12:45:51.994Z,9.56
2022-09-27T12:48:54.339Z,10.28
2022-09-27T12:51:23.761Z,9.67
2022-09-27T12:54:20.966Z,10.27
2022-09-27T12:57:18.166Z,10.03
2022-09-27T12:59:57.643Z,9.97
2022-09-27T13:03:14.546Z,9.64
2022-09-27T13:05:56.782Z,9.46
2022-09-27T13:08:35.764Z,9.38
2022-09-27T13:11:17.672Z,9.00
2022-09-27T13:13:47.813Z,8.68
2022-09-27T13:16:15.399Z,8.45
2022-09-27T13:19:01.540Z,9.27
2022-09-27T13:21:56.639Z,10.84
2022-09-27T13:24:41.450Z,11.57
2022-09-27T13:27:27.722Z,11.84
2022-09-27T13:30:12.288Z,12.43
2022-09-27T13:33:13.986Z,11.68
2022-09-27T13:36:06.677Z,11.36
2022-09-27T13:38:34.819Z,11.79
2022-09-27T13:41:21.362Z,11.57
2022-09-27T13:44:09.247Z,12.26
2022-09-27T13:46:53.660Z,11.96
2022-09-27T13:49:30.114Z,11.68
2022-09-27T13:52:21.114Z,11.54
2022-09-27T13:55:01.126Z,10.93
2022-09-27T13:57:58.496Z,10.95
2022-09-27T14:00:34.434Z,10.45
2022-09-27T14:03:08.820Z,10.06
2022-09-27T14:05:41.502Z,10.01
2022-09-27T14:08:28.243Z,9.99
2022-09-27T14:10:56.129Z,9.84
2022-09-27T14:13:25.372Z,9.90
2022-09-27T14:16:07.249Z,9.44
2022-09-27T14:18:45.859Z,9.43
2022-09-27T14:21:22.161Z,9.36
2022-09-27T14:24:30.073Z,9.00
2022-09-27T14:27:10.162Z,9.32
2022-09-27T14:29:53.734Z,9.67
2022-09-27T14:32:27.128Z,10.08
2022-09-27T14:35:31.320Z,11.11
2022-09-27T14:38:15.697Z,10.08
2022-09-27T14:40:53.997Z,10.27
2022-09-27T14:43:22.459Z,9.74
2022-09-27T14:45:52.794Z,9.26
2022-09-27T14:48:19.362Z,9.78
2022-09-27T14:51:19.303Z,9.25
2022-09-27T14:53:56.958Z,9.68
2022-09-27T14:56:38.048Z,9.67
2022-09-27T14:59:14.195Z,9.66
2022-09-27T15:01:50.277Z,9.71
2022-09-27T15:04:17.459Z,9.58
2022-09-27T15:06:45.508Z,8.77
2022-09-27T15:09:14.792Z,8.77
2022-09-27T15:11:42.807Z,8.81
2022-09-27T15:14:16.226Z,8.73
2022-09-27T15:16:45.002Z,8.41
2022-09-27T15:19:17.315Z,8.63
2022-09-27T15:21:44.818Z,8.75
2022-09-27T15:24:37.722Z,8.74
2022-09-27T15:27:25.319Z,8.75
2022-09-27T15:29:54.942Z,8.50
2022-09-27T15:32:24.074Z,8.76
2022-09-27T15:34:51.565Z,8.80
2022-09-27T15:37:28.550Z,8.76
2022-09-27T15:39:55.363Z,8.68
2022-09-27T15:42:22.054Z,8.54
2022-09-27T15:44:53.774Z,8.56
2022-09-27T15:47:34.350Z,8.63
2022-09-27T15:50:16.315Z,8.59
2022-09-27T15:52:44.745Z,8.54
2022-09-27T15:55:12.472Z,8.61
2022-09-27T15:57:39.910Z,8.46
2022-09-27T16:00:12.287Z,8.73
2022-09-27T16:02:39.022Z,8.46
2022-09-27T16:05:08.855Z,8.44
2022-09-27T16:07:35.679Z,8.34
2022-09-27T16:10:02.509Z,8.48
2022-09-27T16:12:31.220Z,8.02
2022-09-27T16:14:58.063Z,8.14
2022-09-27T16:17:25.104Z,8.42
2022-09-27T16:19:51.679Z,7.95
2022-09-27T16:22:18.348Z,8.08
2022-09-27T16:24:45.692Z,8.19
2022-09-27T16:27:12.638Z,8.20
2022-09-27T16:29:43.536Z,8.40
2022-09-27T16:32:11.120Z,8.30
2022-09-27T16:34:38.164Z,8.20
2022-09-27T16:37:05.774Z,8.15
2022-09-27T16:39:32.367Z,8.19
2022-09-27T16:41:59.965Z,8.14
2022-09-27T16:44:26.662Z,8.32
2022-09-27T16:46:53.319Z,7.54
2022-09-27T16:49:38.558Z,7.74
2022-09-27T16:52:05.215Z,8.03
2022-09-27T16:54:31.857Z,7.82
2022-09-27T16:56:59.535Z,7.75
2022-09-27T16:59:27.141Z,8.20
2022-09-27T17:01:57.956Z,8.13
2022-09-27T17:04:26.621Z,7.57
2022-09-27T17:06:54.057Z,7.87
2022-09-27T17:09:24.524Z,7.86
2022-09-27T17:11:51.523Z,8.13
2022-09-27T17:14:18.730Z,8.19
2022-09-27T17:16:46.554Z,8.17
2022-09-27T17:19:14.463Z,8.17
2022-09-27T17:21:42.341Z,8.17
2022-09-27T17:24:09.676Z,7.69
2022-09-27T17:26:36.355Z,8.36
2022-09-27T17:29:04.447Z,8.32
2022-09-27T17:31:33.572Z,8.30
2022-09-27T17:34:00.547Z,8.17
2022-09-27T17:36:30.055Z,8.12
2022-09-27T17:38:59.054Z,8.11
2022-09-27T17:41:27.273Z,8.12
2022-09-27T17:43:57.743Z,8.10
2022-09-27T17:46:30.803Z,8.14
2022-09-27T17:49:16.151Z,7.89
2022-09-27T17:51:46.067Z,8.02
2022-09-27T17:54:13.271Z,7.72
2022-09-27T17:56:42.014Z,7.97
2022-09-27T17:59:10.631Z,7.65
2022-09-27T18:01:39.320Z,7.32
2022-09-27T18:04:11.457Z,7.85
2022-09-27T18:06:40.470Z,7.66
2022-09-27T18:09:09.226Z,7.31
2022-09-27T18:11:37.210Z,7.87
2022-09-27T18:14:04.741Z,7.54
2022-09-27T18:16:39.237Z,7.84
2022-09-27T18:19:07.973Z,7.79
2022-09-27T18:21:34.733Z,7.61
2022-09-27T18:24:06.069Z,7.71
2022-09-27T18:26:36.544Z,7.66
2022-09-27T18:29:06.937Z,7.52
2022-09-27T18:31:33.865Z,7.44
2022-09-27T18:34:00.623Z,7.26
2022-09-27T18:36:27.986Z,7.20
2022-09-27T18:39:00.132Z,7.21
2022-09-27T18:41:29.137Z,7.04
2022-09-27T18:44:01.310Z,7.50
2022-09-27T18:46:35.444Z,7.49
2022-09-27T18:49:10.748Z,7.40
2022-09-27T18:51:41.898Z,7.30
2022-09-27T18:54:14.463Z,7.45
2022-09-27T18:56:41.573Z,7.21
2022-09-27T18:59:29.805Z,7.39
2022-09-27T19:01:56.517Z,7.19
2022-09-27T19:04:24.900Z,7.25
2022-09-27T19:06:53.312Z,7.06
2022-09-27T19:09:20.084Z,7.13
2022-09-27T19:11:46.922Z,6.68
2022-09-27T19:14:19.158Z,7.34
2022-09-27T19:16:47.450Z,6.87
2022-09-27T19:19:15.888Z,7.06
2022-09-27T19:21:42.848Z,6.77
2022-09-27T19:24:09.498Z,7.00
2022-09-27T19:26:36.117Z,6.90
2022-09-27T19:29:03.687Z,6.88
2022-09-27T19:31:30.430Z,7.05
2022-09-27T19:34:00.415Z,6.81
2022-09-27T19:36:27.867Z,6.95
2022-09-27T19:38:56.466Z,6.53
2022-09-27T19:41:23.208Z,6.60
2022-09-27T19:43:54.372Z,6.88
2022-09-27T19:46:22.832Z,6.82
2022-09-27T19:48:50.393Z,6.44
2022-09-27T19:51:20.177Z,6.47
2022-09-27T19:53:46.921Z,6.52
2022-09-27T19:56:14.631Z,6.48
2022-09-27T19:58:42.864Z,6.59
2022-09-27T20:01:12.144Z,6.26
2022-09-27T20:03:40.929Z,6.46
2022-09-27T20:06:13.584Z,6.48
2022-09-27T20:08:41.276Z,6.49
2022-09-27T20:11:14.062Z,6.30
2022-09-27T20:13:41.755Z,6.42
2022-09-27T20:16:17.143Z,6.46
2022-09-27T20:18:49.151Z,6.25
2022-09-27T20:21:16.910Z,5.96
2022-09-27T20:23:44.071Z,6.50
2022-09-27T20:26:13.743Z,6.47
2022-09-27T20:28:54.759Z,6.44
2022-09-27T20:31:24.136Z,6.45
2022-09-27T20:33:51.389Z,6.29
2022-09-27T20:36:34.076Z,6.61
2022-09-27T20:39:03.316Z,6.41
2022-09-27T20:41:39.187Z,6.40
2022-09-27T20:44:08.388Z,6.57
2022-09-27T20:46:36.847Z,6.68
2022-09-27T20:49:07.007Z,6.70
2022-09-27T20:51:35.234Z,6.56
2022-09-27T20:54:04.199Z,6.53
2022-09-27T20:56:33.619Z,6.76
2022-09-27T20:59:04.058Z,6.49
2022-09-27T21:01:32.041Z,6.61
2022-09-27T21:04:03.691Z,6.73
2022-09-27T21:06:32.225Z,6.85
2022-09-27T21:09:05.292Z,6.61
2022-09-27T21:11:32.331Z,6.36
2022-09-27T21:13:58.944Z,6.71
2022-09-27T21:16:29.030Z,6.53
2022-09-27T21:18:57.391Z,6.80
2022-09-27T21:21:24.838Z,6.62
2022-09-27T21:23:57.453Z,6.83
2022-09-27T21:26:25.538Z,6.63
2022-09-27T21:28:54.712Z,6.72
2022-09-27T21:31:23.661Z,6.46
2022-09-27T21:33:54.052Z,6.67
2022-09-27T21:36:26.239Z,6.65
2022-09-27T21:38:53.164Z,6.63
2022-09-27T21:41:19.910Z,6.20
2022-09-27T21:43:48.822Z,6.52
2022-09-27T21:46:20.410Z,6.66
2022-09-27T21:48:49.949Z,6.66
2022-09-27T21:51:20.959Z,6.44
2022-09-27T21:53:53.376Z,6.74
2022-09-27T21:56:21.870Z,6.77
2022-09-27T21:58:49.668Z,6.72
2022-09-27T22:01:21.707Z,6.71
2022-09-27T22:03:49.899Z,6.74
2022-09-27T22:06:41.006Z,6.56
2022-09-27T22:09:12.031Z,6.74
2022-09-27T22:11:43.880Z,6.77
2022-09-27T22:14:11.228Z,6.68
2022-09-27T22:16:37.919Z,6.58
2022-09-27T22:19:04.917Z,6.51
2022-09-27T22:21:34.373Z,6.72
2022-09-27T22:24:08.240Z,6.68
2022-09-27T22:26:38.168Z,6.68
2022-09-27T22:29:06.150Z,6.74
2022-09-27T22:31:33.175Z,6.75
2022-09-27T22:34:02.107Z,6.71
2022-09-27T22:36:30.019Z,6.68
2022-09-27T22:38:56.930Z,6.74
2022-09-27T22:41:24.484Z,6.39
2022-09-27T22:43:54.458Z,6.63
2022-09-27T22:46:22.094Z,6.68
2022-09-27T22:48:49.737Z,6.46
2022-09-27T22:51:17.343Z,6.46
2022-09-27T22:53:44.365Z,6.55
2022-09-27T22:56:17.350Z,6.65
2022-09-27T22:58:44.605Z,6.68
2022-09-27T23:01:21.814Z,6.48
2022-09-27T23:03:50.703Z,6.67
2022-09-27T23:06:19.115Z,6.63
2022-09-27T23:08:46.166Z,6.62
2022-09-27T23:11:17.572Z,6.59
2022-09-27T23:13:44.658Z,6.55
2022-09-27T23:16:14.497Z,6.23
2022-09-27T23:18:42.150Z,5.78
2022-09-27T23:21:11.580Z,6.27
2022-09-27T23:23:41.267Z,6.20
2022-09-27T23:26:10.564Z,6.42
2022-09-27T23:28:37.433Z,6.29
2022-09-27T23:31:16.914Z,6.34
2022-09-27T23:33:48.943Z,6.23
2022-09-27T23:36:18.606Z,6.45
2022-09-27T23:38:47.026Z,6.42
2022-09-27T23:41:15.147Z,5.76
2022-09-27T23:43:42.182Z,5.92
2022-09-27T23:46:09.280Z,6.43
2022-09-27T23:48:36.417Z,6.41
2022-09-27T23:51:05.464Z,6.48
2022-09-27T23:53:32.182Z,6.37
2022-09-27T23:56:03.489Z,6.35
2022-09-27T23:58:38.794Z,6.30
